Shinshinmaru — JD3332 — position and weather

sailwx.info

Track history (hours):
 
Tides and Currents Weather Stations Pressure Air Temp Water Temp Dewpoint Dewpoint Depression Visibility Wind Speed Wind Dir Waves Ship Positions

Shinshinmaru

Last reported at 2018-Jun-22 14:30 UTC. Time now 2018-Jun-22 17:09 UTC.
Position N 33°52' E 135°03'.

Length 74 m; draft 5 m.

Type: Tanker. MMSI: 431003616.

Date/timePositionNaut miles runAvg speedWind from/ knotsBaromVisibWave heightAir tempDewpointWater temp
2018-Jun-22 14:30N 33°52' E 135°03'612.1
2018-Jun-22 14:00N 33°56' E 134°58'711.8
2018-Jun-22 13:27N 34°01' E 134°53'511.9
2018-Jun-22 12:59N 34°05' E 134°48'912.3
2018-Jun-22 12:17N 34°12' E 134°41'912.1
2018-Jun-22 11:31N 34°17' E 134°32'212.2
2018-Jun-22 11:23N 34°18' E 134°30'512.1
2018-Jun-22 11:00N 34°19' E 134°25'612.3
2018-Jun-22 10:30N 34°22' E 134°18'612.1
2018-Jun-22 10:00N 34°24' E 134°12'911.5
2018-Jun-22 09:16N 34°25' E 134°02'  
Track history (hours):
 
Tides and Currents Weather Stations Pressure Air Temp Water Temp Dewpoint Dewpoint Depression Visibility Wind Speed Wind Dir Waves Ship Positions

Shinshinmaru

Last reported at 2018-Jun-22 14:30 UTC. Time now 2018-Jun-22 17:09 UTC.
Position N 33°52' E 135°03'.

Length 74 m; draft 5 m.

Type: Tanker. MMSI: 431003616.

Date/timePositionNaut miles runAvg speedWind from/ knotsBaromVisibWave heightAir tempDewpointWater temp
2018-Jun-22 14:30N 33°52' E 135°03'612.1
2018-Jun-22 14:00N 33°56' E 134°58'711.8
2018-Jun-22 13:27N 34°01' E 134°53'511.9
2018-Jun-22 12:59N 34°05' E 134°48'912.3
2018-Jun-22 12:17N 34°12' E 134°41'912.1
2018-Jun-22 11:31N 34°17' E 134°32'212.2
2018-Jun-22 11:23N 34°18' E 134°30'512.1
2018-Jun-22 11:00N 34°19' E 134°25'612.3
2018-Jun-22 10:30N 34°22' E 134°18'612.1
2018-Jun-22 10:00N 34°24' E 134°12'911.5
2018-Jun-22 09:16N 34°25' E 134°02'  

Dump ship's entire track history